Time;durP1;ratioP1;P1;durP2;ratioP2;P2;SDS_P1;SDS_P2;PMS_P1;PMS_P2;Temp;Humidity;BMP_temperature;BMP_pressure;BME280_temperature;BME280_humidity;BME280_pressure;Samples;Min_cycle;Max_cycle;Signal;HPM_P1;HPM_P2
2023/12/01 00:02:02;;;;;;;12.98;9.15;;;2.10;99.90;;;;;;4990819;28;20010;-74
2023/12/01 00:04:28;;;;;;;13.13;9.10;;;2.10;99.90;;;;;;4991810;28;20118;-74
2023/12/01 00:06:54;;;;;;;16.02;10.35;;;2.10;99.90;;;;;;4990107;28;20087;-74
2023/12/01 00:09:19;;;;;;;15.85;10.18;;;2.20;99.90;;;;;;4989910;28;20057;-74
2023/12/01 00:11:45;;;;;;;17.58;11.20;;;2.10;99.90;;;;;;4994607;28;20042;-74
2023/12/01 00:14:11;;;;;;;16.00;10.45;;;2.10;99.90;;;;;;4994185;28;20022;-74
2023/12/01 00:16:36;;;;;;;17.63;11.38;;;2.00;99.90;;;;;;4997737;28;20740;-73
2023/12/01 00:19:02;;;;;;;17.88;12.32;;;2.00;99.90;;;;;;5000297;28;20033;-73
2023/12/01 00:21:28;;;;;;;16.88;10.13;;;2.00;99.90;;;;;;4999374;28;20495;-73
2023/12/01 00:23:54;;;;;;;17.05;11.77;;;2.00;99.90;;;;;;4999414;28;20042;-74
2023/12/01 00:26:20;;;;;;;14.65;10.93;;;2.10;99.90;;;;;;4999136;28;20030;-74
2023/12/01 00:28:45;;;;;;;13.57;8.77;;;2.10;99.90;;;;;;4998370;28;20938;-74
2023/12/01 00:31:11;;;;;;;14.00;8.80;;;2.10;99.90;;;;;;4997886;28;20120;-73
2023/12/01 00:33:37;;;;;;;17.33;11.20;;;2.30;99.90;;;;;;4998949;28;20033;-73
2023/12/01 00:36:03;;;;;;;19.33;11.88;;;2.20;99.90;;;;;;4999168;28;21877;-74
2023/12/01 00:38:28;;;;;;;15.27;11.65;;;2.10;99.90;;;;;;4998942;28;20034;-74
2023/12/01 00:40:54;;;;;;;17.15;11.25;;;2.00;99.90;;;;;;4999649;28;20037;-73
2023/12/01 00:43:20;;;;;;;18.17;12.63;;;2.00;99.90;;;;;;4998195;28;20030;-74
2023/12/01 00:45:45;;;;;;;18.92;11.90;;;2.00;99.90;;;;;;4998616;28;20451;-73
2023/12/01 00:48:11;;;;;;;18.08;12.00;;;2.00;99.90;;;;;;4999506;28;20030;-73
2023/12/01 00:50:42;;;;;;;18.92;12.02;;;2.10;99.90;;;;;;4998022;28;20129;-73
2023/12/01 00:53:08;;;;;;;19.33;12.73;;;2.10;99.90;;;;;;4996507;28;20034;-74
2023/12/01 00:55:34;;;;;;;17.05;10.43;;;2.20;99.90;;;;;;4999131;28;20038;-73
2023/12/01 00:58:00;;;;;;;18.77;11.80;;;2.20;99.90;;;;;;4998863;28;20043;-73
2023/12/01 01:00:26;;;;;;;12.55;8.18;;;2.20;99.90;;;;;;5000600;28;20037;-73
2023/12/01 01:02:52;;;;;;;13.70;9.27;;;2.20;99.90;;;;;;4997814;28;20085;-74
2023/12/01 01:05:17;;;;;;;16.00;10.25;;;2.20;99.90;;;;;;4998293;28;20076;-74
2023/12/01 01:07:43;;;;;;;14.52;10.23;;;2.20;99.90;;;;;;4999272;28;20041;-74
2023/12/01 01:10:09;;;;;;;13.93;8.85;;;2.10;99.90;;;;;;4997457;28;20046;-74
2023/12/01 01:12:35;;;;;;;17.63;10.27;;;2.00;99.90;;;;;;4997776;28;20034;-73
2023/12/01 01:15:03;;;;;;;13.73;9.07;;;2.00;99.90;;;;;;4999184;28;20045;-74
2023/12/01 01:17:32;;;;;;;12.75;8.70;;;2.10;99.90;;;;;;4998156;28;20037;-74
2023/12/01 01:19:58;;;;;;;16.88;10.13;;;2.20;99.90;;;;;;4998536;28;20502;-73
2023/12/01 01:22:25;;;;;;;13.77;8.70;;;2.20;99.90;;;;;;4998565;28;20172;-74
2023/12/01 01:24:51;;;;;;;13.30;8.00;;;2.10;99.90;;;;;;4996910;28;20522;-74
2023/12/01 01:27:17;;;;;;;13.20;8.23;;;2.00;99.90;;;;;;4997507;28;20475;-73
2023/12/01 01:29:43;;;;;;;13.43;8.55;;;2.10;99.90;;;;;;4996996;28;20128;-74
2023/12/01 01:32:11;;;;;;;15.13;9.90;;;2.20;99.90;;;;;;4998279;28;20045;-74
2023/12/01 01:34:36;;;;;;;16.50;10.13;;;2.30;99.90;;;;;;4998906;28;20038;-73
2023/12/01 01:37:02;;;;;;;15.55;9.05;;;2.30;99.90;;;;;;4997135;28;20060;-74
2023/12/01 01:39:28;;;;;;;14.43;8.43;;;2.30;99.90;;;;;;4997057;28;20037;-73
2023/12/01 01:41:56;;;;;;;15.20;10.32;;;2.30;99.90;;;;;;4998549;28;20030;-73
2023/12/01 01:44:22;;;;;;;17.30;11.93;;;2.20;99.90;;;;;;4997210;28;20101;-73
2023/12/01 01:46:48;;;;;;;14.88;10.80;;;2.10;99.90;;;;;;4997502;28;20101;-73
2023/12/01 01:49:14;;;;;;;15.45;10.43;;;2.10;99.90;;;;;;4999721;28;20073;-73
2023/12/01 01:51:40;;;;;;;17.10;11.30;;;2.00;99.90;;;;;;4997245;28;20129;-73
2023/12/01 01:54:06;;;;;;;17.20;10.55;;;2.00;99.90;;;;;;4996284;28;20057;-74
2023/12/01 01:56:33;;;;;;;15.40;11.00;;;2.00;99.90;;;;;;4998589;28;20108;-73
2023/12/01 01:58:59;;;;;;;15.20;10.82;;;1.90;99.90;;;;;;4996944;28;20568;-73
2023/12/01 02:01:25;;;;;;;18.67;12.70;;;1.90;99.90;;;;;;4997291;28;20034;-74
2023/12/01 02:03:52;;;;;;;16.75;11.95;;;1.90;99.90;;;;;;4998259;28;20058;-73
2023/12/01 02:06:19;;;;;;;20.20;13.13;;;1.90;99.90;;;;;;4998004;28;20655;-73
2023/12/01 02:08:45;;;;;;;15.68;11.02;;;2.10;99.90;;;;;;4996663;28;20416;-73
2023/12/01 02:11:13;;;;;;;17.42;10.70;;;2.00;99.90;;;;;;4996818;28;20034;-74
2023/12/01 02:13:40;;;;;;;17.35;10.50;;;2.00;99.90;;;;;;4997491;28;20033;-73
2023/12/01 02:16:09;;;;;;;16.95;10.93;;;2.00;99.90;;;;;;4998306;28;20034;-74
2023/12/01 02:18:34;;;;;;;18.30;11.32;;;2.00;99.90;;;;;;4997449;28;20037;-73
2023/12/01 02:21:00;;;;;;;16.00;10.90;;;2.10;99.90;;;;;;4997048;28;20447;-73
2023/12/01 02:23:26;;;;;;;18.45;11.23;;;2.00;99.90;;;;;;4997017;28;20057;-73
2023/12/01 02:25:52;;;;;;;15.25;11.05;;;2.00;99.90;;;;;;4996157;28;20383;-74
2023/12/01 02:28:18;;;;;;;23.27;13.80;;;2.00;99.90;;;;;;4998125;28;20030;-73
2023/12/01 02:30:51;;;;;;;19.67;12.52;;;2.00;99.90;;;;;;4996363;28;20046;-73
2023/12/01 02:33:18;;;;;;;17.13;10.75;;;2.00;99.90;;;;;;4996102;28;20492;-74
2023/12/01 02:35:48;;;;;;;15.77;10.98;;;2.10;99.90;;;;;;4997489;28;20067;-73
2023/12/01 02:38:14;;;;;;;13.43;9.65;;;2.10;99.90;;;;;;4996075;28;20447;-73
2023/12/01 02:40:43;;;;;;;15.07;10.18;;;2.00;99.90;;;;;;4995443;28;20065;-73
2023/12/01 02:43:13;;;;;;;14.02;9.75;;;2.00;99.90;;;;;;4998274;28;20365;-74
2023/12/01 02:45:38;;;;;;;14.77;10.20;;;2.10;99.90;;;;;;4997935;28;20476;-73
2023/12/01 02:48:05;;;;;;;14.38;9.35;;;2.10;99.90;;;;;;4997523;28;20032;-73
2023/12/01 02:50:31;;;;;;;12.55;9.13;;;2.10;99.90;;;;;;4996900;28;20080;-73
2023/12/01 02:52:58;;;;;;;15.00;10.63;;;2.20;99.90;;;;;;4997041;28;20099;-73
2023/12/01 02:55:23;;;;;;;13.70;8.95;;;2.30;99.90;;;;;;4997681;28;20038;-73
2023/12/01 02:57:49;;;;;;;13.77;9.40;;;2.10;99.90;;;;;;4995538;28;20732;-73
2023/12/01 03:00:15;;;;;;;14.27;9.98;;;2.20;99.90;;;;;;4997630;28;20034;-73
2023/12/01 03:02:44;;;;;;;12.63;9.27;;;2.20;99.90;;;;;;4996388;28;20077;-73
2023/12/01 03:05:10;;;;;;;16.77;10.90;;;2.10;99.90;;;;;;4995425;28;20046;-73
2023/12/01 03:07:37;;;;;;;13.45;9.98;;;2.10;99.90;;;;;;4996580;28;20038;-74
2023/12/01 03:10:04;;;;;;;15.35;10.52;;;2.00;99.90;;;;;;4996623;28;20046;-73
2023/12/01 03:12:30;;;;;;;12.45;9.65;;;2.10;99.90;;;;;;4996794;28;20683;-73
2023/12/01 03:14:58;;;;;;;14.88;10.32;;;2.10;99.90;;;;;;4997084;28;20480;-73
2023/12/01 03:17:24;;;;;;;12.85;8.27;;;2.10;99.90;;;;;;4995848;28;20061;-73
2023/12/01 03:19:53;;;;;;;11.63;7.70;;;2.10;99.90;;;;;;4995678;28;20049;-73
2023/12/01 03:22:19;;;;;;;13.35;9.07;;;2.00;99.90;;;;;;4996298;28;20048;-74
2023/12/01 03:24:47;;;;;;;13.13;8.90;;;2.10;99.90;;;;;;4996653;28;20037;-73
2023/12/01 03:27:14;;;;;;;13.70;8.93;;;2.20;99.90;;;;;;4995020;28;20018;-73
2023/12/01 03:29:41;;;;;;;12.00;9.00;;;2.30;99.90;;;;;;4994604;28;20048;-73
2023/12/01 03:32:07;;;;;;;15.30;9.63;;;2.30;99.90;;;;;;4995820;28;20553;-73
2023/12/01 03:34:32;;;;;;;10.88;8.43;;;2.30;99.90;;;;;;4995189;28;20041;-73
2023/12/01 03:36:58;;;;;;;13.85;9.73;;;2.20;99.90;;;;;;4995041;28;20053;-73
2023/12/01 03:39:25;;;;;;;10.95;7.10;;;2.30;99.90;;;;;;4997359;28;20041;-73
2023/12/01 03:41:51;;;;;;;12.65;8.48;;;2.20;99.90;;;;;;4996268;28;20042;-73
2023/12/01 03:44:16;;;;;;;15.45;9.30;;;2.40;99.90;;;;;;4994350;28;20037;-73
2023/12/01 03:46:43;;;;;;;14.10;9.48;;;2.30;99.90;;;;;;4996787;28;20046;-73
2023/12/01 03:49:09;;;;;;;14.00;9.30;;;2.20;99.90;;;;;;4996896;28;20038;-73
2023/12/01 03:51:36;;;;;;;13.43;8.82;;;2.20;99.90;;;;;;4995705;28;20034;-73
2023/12/01 03:54:02;;;;;;;12.48;9.07;;;2.20;99.90;;;;;;4996200;28;20034;-73
2023/12/01 03:56:28;;;;;;;12.68;8.75;;;2.20;99.90;;;;;;4993322;28;20044;-73
2023/12/01 03:58:55;;;;;;;12.77;8.48;;;2.20;99.90;;;;;;4995715;28;20045;-73
2023/12/01 04:01:21;;;;;;;13.00;8.88;;;2.20;99.90;;;;;;4995565;28;20030;-73
2023/12/01 04:03:47;;;;;;;12.88;6.53;;;2.20;99.90;;;;;;4991929;28;22012;-74
2023/12/01 04:06:13;;;;;;;13.32;8.40;;;2.00;99.90;;;;;;4989287;28;25741;-74
2023/12/01 04:08:38;;;;;;;11.98;8.77;;;2.20;99.90;;;;;;4991455;28;20038;-74
2023/12/01 04:11:08;;;;;;;13.35;9.23;;;2.30;99.90;;;;;;4990410;28;20048;-73
2023/12/01 04:13:35;;;;;;;20.73;9.07;;;2.20;99.90;;;;;;4991177;28;20034;-74
2023/12/01 04:16:00;;;;;;;25.15;10.48;;;2.10;99.90;;;;;;4991793;28;20472;-74
2023/12/01 04:18:29;;;;;;;19.23;10.32;;;2.10;99.90;;;;;;4988465;28;20049;-73
2023/12/01 04:20:57;;;;;;;12.95;9.73;;;2.00;99.90;;;;;;4989195;28;20723;-74
2023/12/01 04:23:23;;;;;;;11.40;8.48;;;2.10;99.90;;;;;;4987849;28;20034;-74
2023/12/01 04:25:50;;;;;;;14.88;9.15;;;2.10;99.90;;;;;;4986606;28;20448;-74
2023/12/01 04:28:16;;;;;;;11.75;8.05;;;2.10;99.90;;;;;;4987951;28;20137;-74
2023/12/01 04:30:42;;;;;;;11.27;7.40;;;2.20;99.90;;;;;;4991325;28;20042;-74
2023/12/01 04:33:08;;;;;;;11.15;8.02;;;2.20;99.90;;;;;;4992727;28;20092;-73
2023/12/01 04:35:36;;;;;;;12.73;8.63;;;2.20;99.90;;;;;;4991475;28;20038;-73
2023/12/01 04:38:03;;;;;;;12.23;8.70;;;2.30;99.90;;;;;;4992460;28;20119;-74
2023/12/01 04:40:29;;;;;;;11.80;8.23;;;2.20;99.90;;;;;;4990840;28;20036;-73
2023/12/01 04:42:56;;;;;;;12.13;8.55;;;2.20;99.90;;;;;;4990918;28;20033;-73
2023/12/01 04:45:26;;;;;;;11.73;8.23;;;2.30;99.90;;;;;;4993694;28;20046;-74
2023/12/01 04:47:54;;;;;;;51.20;16.08;;;2.40;99.90;;;;;;4990240;28;20423;-73
2023/12/01 04:50:21;;;;;;;14.52;10.48;;;2.20;99.90;;;;;;4990403;28;22129;-73
2023/12/01 04:52:49;;;;;;;19.88;10.40;;;2.20;99.90;;;;;;4992358;28;20038;-74
2023/12/01 04:55:17;;;;;;;11.00;8.93;;;2.20;99.90;;;;;;4992436;28;20029;-73
2023/12/01 04:57:44;;;;;;;12.73;8.88;;;2.20;99.90;;;;;;4989969;28;20064;-73
2023/12/01 05:00:22;;;;;;;55.72;12.85;;;2.20;99.90;;;;;;4990349;28;20037;-74
2023/12/01 05:02:54;;;;;;;17.20;9.55;;;2.10;99.90;;;;;;4990539;28;20464;-73
2023/12/01 05:05:23;;;;;;;12.18;8.98;;;2.00;99.90;;;;;;4993081;28;20034;-74
2023/12/01 05:07:51;;;;;;;23.58;7.85;;;2.00;99.90;;;;;;4990638;28;20037;-74
2023/12/01 05:10:18;;;;;;;11.25;7.35;;;2.00;99.90;;;;;;4991619;28;20073;-74
2023/12/01 05:12:45;;;;;;;11.98;8.23;;;2.00;99.90;;;;;;4992062;28;20038;-74
2023/12/01 05:15:18;;;;;;;11.40;8.25;;;2.10;99.90;;;;;;4991949;28;21398;-73
2023/12/01 05:17:49;;;;;;;14.00;9.15;;;2.20;99.90;;;;;;4992467;28;20041;-74
2023/12/01 05:20:15;;;;;;;12.25;8.40;;;2.20;99.90;;;;;;4991757;28;20935;-74
2023/12/01 05:22:52;;;;;;;13.52;8.05;;;2.30;99.90;;;;;;4992612;28;20585;-74
2023/12/01 05:25:19;;;;;;;34.38;10.57;;;2.30;99.90;;;;;;4992405;28;20124;-74
2023/12/01 05:27:50;;;;;;;52.22;11.38;;;2.20;99.90;;;;;;4992062;28;20034;-74
2023/12/01 05:30:17;;;;;;;11.30;7.78;;;2.10;99.90;;;;;;4992651;28;20654;-74
2023/12/01 05:32:48;;;;;;;11.65;8.43;;;2.20;99.90;;;;;;4991314;28;20038;-74
2023/12/01 05:35:15;;;;;;;15.35;8.70;;;2.20;99.90;;;;;;4990994;28;20041;-74
2023/12/01 05:37:46;;;;;;;13.30;8.35;;;2.10;99.90;;;;;;4990820;28;20697;-73
2023/12/01 05:40:14;;;;;;;17.40;11.95;;;2.10;99.90;;;;;;4991200;28;20038;-74
2023/12/01 05:42:41;;;;;;;12.77;9.10;;;2.10;99.90;;;;;;4991565;28;20038;-74
2023/12/01 05:45:11;;;;;;;9.25;6.13;;;2.10;99.90;;;;;;4990646;28;20641;-74
2023/12/01 05:47:42;;;;;;;11.48;7.53;;;2.00;99.90;;;;;;4990805;28;20034;-73
2023/12/01 05:50:21;;;;;;;11.70;7.18;;;2.20;99.90;;;;;;4991007;28;20042;-74
2023/12/01 05:52:48;;;;;;;17.70;9.20;;;2.30;99.90;;;;;;4991660;28;20478;-73
2023/12/01 05:55:21;;;;;;;10.27;8.10;;;2.10;99.90;;;;;;4990511;28;20045;-73
2023/12/01 05:57:49;;;;;;;8.85;6.25;;;2.10;99.90;;;;;;4989826;28;20045;-73
2023/12/01 06:00:17;;;;;;;8.38;5.60;;;2.10;99.90;;;;;;4988770;28;20041;-73
2023/12/01 06:02:50;;;;;;;12.75;8.05;;;2.10;99.90;;;;;;4989764;28;20080;-73
2023/12/01 06:05:18;;;;;;;12.95;8.75;;;2.30;99.90;;;;;;4987863;28;20052;-73
2023/12/01 06:07:49;;;;;;;12.73;8.98;;;2.50;99.90;;;;;;4989085;28;20025;-73
2023/12/01 06:10:16;;;;;;;13.48;8.50;;;2.50;99.90;;;;;;4990220;28;20042;-73
2023/12/01 06:12:42;;;;;;;12.07;8.43;;;2.50;99.90;;;;;;4990184;28;20129;-74
2023/12/01 06:15:09;;;;;;;12.55;7.90;;;2.50;99.90;;;;;;4989303;28;20038;-74
2023/12/01 06:17:40;;;;;;;11.27;7.97;;;2.30;99.90;;;;;;4993795;28;20046;-73
2023/12/01 06:20:16;;;;;;;11.85;8.20;;;2.20;99.90;;;;;;4992503;28;20475;-73
2023/12/01 06:22:47;;;;;;;13.35;9.38;;;2.20;99.90;;;;;;4989491;28;20056;-73
2023/12/01 06:25:13;;;;;;;15.45;11.15;;;2.30;99.90;;;;;;4986837;28;20061;-73
2023/12/01 06:27:40;;;;;;;12.10;9.35;;;2.30;99.90;;;;;;4989614;28;20038;-72
2023/12/01 06:30:12;;;;;;;14.13;9.32;;;2.40;99.90;;;;;;4989648;28;20128;-72
2023/12/01 06:32:46;;;;;;;16.00;8.85;;;2.30;99.90;;;;;;4986175;28;20421;-72
2023/12/01 06:35:15;;;;;;;13.70;8.82;;;2.10;99.90;;;;;;4988230;28;20041;-72
2023/12/01 06:37:43;;;;;;;11.52;8.50;;;2.10;99.90;;;;;;4989494;28;20057;-73
2023/12/01 06:40:15;;;;;;;11.00;8.23;;;2.10;99.90;;;;;;4988503;28;20030;-73
2023/12/01 06:42:46;;;;;;;11.20;7.50;;;2.20;99.90;;;;;;4987591;28;20061;-73
2023/12/01 06:45:13;;;;;;;9.98;8.23;;;2.30;99.90;;;;;;4989584;28;20044;-73
2023/12/01 06:47:41;;;;;;;11.07;8.52;;;2.40;99.90;;;;;;4988185;28;20038;-73
2023/12/01 06:50:11;;;;;;;20.73;9.43;;;2.30;99.90;;;;;;4989351;28;20740;-73
2023/12/01 06:52:40;;;;;;;10.32;7.47;;;2.10;99.90;;;;;;4989961;28;20073;-73
2023/12/01 06:55:07;;;;;;;10.65;7.53;;;2.20;99.90;;;;;;4989543;28;20045;-73
2023/12/01 06:57:42;;;;;;;33.08;13.90;;;2.30;99.90;;;;;;4987241;28;20555;-73
2023/12/01 07:00:09;;;;;;;47.70;10.07;;;2.20;99.90;;;;;;4986453;28;20148;-73
2023/12/01 07:02:37;;;;;;;11.35;7.55;;;2.10;99.90;;;;;;4986867;28;20049;-73
2023/12/01 07:05:05;;;;;;;25.73;8.63;;;2.10;99.90;;;;;;4989408;28;20168;-73
2023/12/01 07:07:31;;;;;;;8.85;6.05;;;2.00;99.90;;;;;;4987560;28;20120;-73
2023/12/01 07:09:58;;;;;;;7.20;5.50;;;2.10;99.90;;;;;;4987373;28;20046;-73
2023/12/01 07:12:24;;;;;;;7.88;5.30;;;2.20;99.90;;;;;;4988998;28;20038;-73
2023/12/01 07:14:49;;;;;;;8.93;6.57;;;2.30;99.90;;;;;;4988109;28;20123;-73
2023/12/01 07:17:15;;;;;;;7.50;5.43;;;2.30;99.90;;;;;;4986748;28;20073;-73
2023/12/01 07:19:41;;;;;;;8.38;5.80;;;2.40;99.90;;;;;;4988800;28;20396;-73
2023/12/01 07:22:07;;;;;;;6.60;4.60;;;2.40;99.90;;;;;;4986996;28;20041;-73
2023/12/01 07:24:33;;;;;;;5.80;3.90;;;2.30;99.90;;;;;;4987253;28;20034;-73
2023/12/01 07:26:58;;;;;;;6.38;3.80;;;2.20;99.90;;;;;;4988634;28;20422;-73
2023/12/01 07:29:24;;;;;;;5.90;4.20;;;2.20;99.90;;;;;;4987150;28;20049;-74
2023/12/01 07:31:51;;;;;;;7.28;3.88;;;2.30;99.90;;;;;;4983678;28;20034;-73
2023/12/01 07:34:18;;;;;;;6.88;4.63;;;2.30;99.90;;;;;;4987880;28;20029;-74
2023/12/01 07:36:44;;;;;;;7.60;4.65;;;2.40;99.90;;;;;;4987130;28;20034;-73
2023/12/01 07:39:09;;;;;;;5.88;4.53;;;2.50;99.90;;;;;;4988502;28;20478;-73
2023/12/01 07:41:35;;;;;;;6.97;5.03;;;2.40;99.90;;;;;;4986191;28;20809;-73
2023/12/01 07:44:02;;;;;;;6.38;4.22;;;2.30;99.90;;;;;;4986985;28;20150;-73
2023/12/01 07:46:32;;;;;;;6.03;4.07;;;2.30;99.90;;;;;;4987007;28;20034;-73
2023/12/01 07:49:01;;;;;;;8.93;6.13;;;2.40;99.90;;;;;;4986817;28;20037;-73
2023/12/01 07:51:27;;;;;;;8.77;5.32;;;2.40;99.90;;;;;;4986416;28;20032;-73
2023/12/01 07:53:52;;;;;;;9.82;5.68;;;2.40;99.90;;;;;;4988592;28;20030;-73
2023/12/01 07:56:22;;;;;;;8.50;5.70;;;2.40;99.90;;;;;;4986792;28;21088;-73
2023/12/01 07:58:49;;;;;;;7.50;5.22;;;2.50;99.90;;;;;;4990438;28;20091;-73
2023/12/01 08:01:15;;;;;;;7.05;4.95;;;2.40;99.90;;;;;;4991504;28;20073;-73
2023/12/01 08:03:46;;;;;;;7.32;5.90;;;2.50;99.90;;;;;;4989579;28;20612;-73
2023/12/01 08:06:15;;;;;;;9.18;5.95;;;2.40;99.90;;;;;;4988492;28;20096;-73
2023/12/01 08:08:42;;;;;;;9.98;6.55;;;2.40;99.90;;;;;;4987361;28;20708;-73
2023/12/01 08:11:08;;;;;;;9.65;6.22;;;2.30;99.90;;;;;;4986803;28;20112;-73
2023/12/01 08:13:34;;;;;;;10.38;6.50;;;2.30;99.90;;;;;;4986468;28;20034;-73
2023/12/01 08:16:00;;;;;;;7.07;5.35;;;2.40;99.90;;;;;;4987859;28;20040;-73
2023/12/01 08:18:26;;;;;;;8.10;5.25;;;2.40;99.90;;;;;;4986584;28;20081;-73
2023/12/01 08:20:52;;;;;;;7.53;5.00;;;2.30;99.90;;;;;;4987465;28;20048;-73
2023/12/01 08:23:18;;;;;;;8.18;5.10;;;2.30;99.90;;;;;;4987464;28;20985;-73
2023/12/01 08:25:44;;;;;;;8.02;4.88;;;2.40;99.90;;;;;;4987301;28;20048;-73
2023/12/01 08:28:10;;;;;;;7.03;4.47;;;2.40;99.90;;;;;;4987111;28;20271;-73
2023/12/01 08:30:36;;;;;;;5.85;3.78;;;2.40;99.90;;;;;;4986643;28;20113;-73
2023/12/01 08:33:03;;;;;;;5.65;3.83;;;2.40;99.90;;;;;;4989089;28;20049;-73
2023/12/01 08:35:28;;;;;;;5.95;3.55;;;2.50;99.90;;;;;;4991452;28;20121;-72
2023/12/01 08:37:55;;;;;;;5.38;3.50;;;2.50;99.90;;;;;;4990744;28;20486;-73
2023/12/01 08:40:21;;;;;;;7.00;3.90;;;2.70;99.90;;;;;;4989899;28;20033;-73
2023/12/01 08:42:48;;;;;;;6.63;4.63;;;2.70;99.90;;;;;;4992093;28;20172;-73
2023/12/01 08:45:13;;;;;;;6.90;4.18;;;2.80;99.90;;;;;;4991246;28;20125;-74
2023/12/01 08:47:41;;;;;;;5.75;3.58;;;2.80;99.90;;;;;;4989951;28;20034;-73
2023/12/01 08:50:07;;;;;;;5.32;3.40;;;2.80;99.90;;;;;;4991046;28;20050;-73
2023/12/01 08:52:32;;;;;;;6.32;4.00;;;2.70;99.90;;;;;;4989372;28;20037;-73
2023/12/01 08:54:59;;;;;;;5.85;3.95;;;2.70;99.90;;;;;;4989817;28;20860;-73
2023/12/01 08:57:24;;;;;;;7.30;4.95;;;2.70;99.90;;;;;;4990345;28;20069;-73
2023/12/01 08:59:50;;;;;;;8.73;4.93;;;2.70;99.90;;;;;;4989710;28;20109;-73
2023/12/01 09:02:15;;;;;;;9.23;5.85;;;2.70;99.90;;;;;;4990684;28;20129;-73
2023/12/01 09:04:41;;;;;;;14.93;6.68;;;2.80;99.90;;;;;;4993629;28;20514;-73
2023/12/01 09:07:07;;;;;;;10.63;7.13;;;2.70;99.90;;;;;;4994796;28;20037;-73
2023/12/01 09:09:33;;;;;;;9.15;5.88;;;2.60;99.90;;;;;;4994477;28;20037;-73
2023/12/01 09:12:00;;;;;;;7.57;5.50;;;2.70;99.90;;;;;;4995195;28;20523;-73
2023/12/01 09:14:25;;;;;;;9.00;5.00;;;2.70;99.90;;;;;;4994585;28;20034;-73
2023/12/01 09:16:51;;;;;;;6.95;4.45;;;2.70;99.90;;;;;;4994936;28;20392;-73
2023/12/01 09:19:17;;;;;;;6.45;4.28;;;2.70;99.90;;;;;;4994632;28;20183;-73
2023/12/01 09:21:42;;;;;;;6.38;4.53;;;2.70;99.90;;;;;;4994557;28;20116;-73
2023/12/01 09:24:08;;;;;;;6.70;4.20;;;2.80;99.90;;;;;;4993023;28;20068;-73
2023/12/01 09:26:34;;;;;;;9.13;5.22;;;2.90;99.90;;;;;;4991310;28;20042;-73
2023/12/01 09:29:00;;;;;;;14.30;8.02;;;2.80;99.90;;;;;;4993899;28;20038;-73
2023/12/01 09:31:26;;;;;;;10.65;6.75;;;2.80;99.90;;;;;;4994601;28;20385;-73
2023/12/01 09:33:51;;;;;;;8.07;5.80;;;2.60;99.90;;;;;;4993768;28;20580;-74
2023/12/01 09:36:17;;;;;;;9.20;6.10;;;2.70;99.90;;;;;;4993940;28;20107;-73
2023/12/01 09:38:44;;;;;;;5.57;3.90;;;2.70;99.90;;;;;;4994281;28;20026;-73
2023/12/01 09:41:10;;;;;;;8.35;4.55;;;2.80;99.90;;;;;;4993793;28;20124;-73
2023/12/01 09:43:38;;;;;;;10.70;5.82;;;2.70;99.90;;;;;;4993991;28;20093;-73
2023/12/01 09:46:05;;;;;;;9.40;5.75;;;2.80;99.90;;;;;;4993224;28;20045;-73
2023/12/01 09:48:34;;;;;;;6.57;4.53;;;2.80;99.90;;;;;;4993548;28;20033;-74
2023/12/01 09:51:00;;;;;;;7.60;4.50;;;2.80;99.90;;;;;;4993894;28;20065;-74
2023/12/01 09:53:26;;;;;;;6.53;4.68;;;2.80;99.90;;;;;;4993275;28;20029;-73
2023/12/01 09:55:52;;;;;;;6.32;4.30;;;2.80;99.90;;;;;;4994911;28;20034;-73
2023/12/01 09:58:19;;;;;;;6.63;4.38;;;2.90;99.90;;;;;;4994224;28;20056;-74
2023/12/01 10:00:48;;;;;;;6.50;4.38;;;2.90;99.90;;;;;;4994405;28;20025;-73
2023/12/01 10:03:13;;;;;;;7.07;4.30;;;2.80;99.90;;;;;;4995155;28;20058;-73
2023/12/01 10:05:40;;;;;;;5.72;3.83;;;2.90;99.90;;;;;;4989534;28;20040;-73
2023/12/01 10:08:06;;;;;;;5.93;4.10;;;2.90;99.90;;;;;;4993638;28;20568;-73
2023/12/01 10:10:33;;;;;;;7.88;4.57;;;2.90;99.90;;;;;;4992050;28;20049;-73
2023/12/01 10:12:59;;;;;;;6.68;4.40;;;2.90;99.90;;;;;;4992095;28;20025;-73
2023/12/01 10:15:26;;;;;;;6.03;4.32;;;2.90;99.90;;;;;;4990553;28;20030;-73
2023/12/01 10:18:11;;;;;;;7.57;5.18;;;3.00;99.90;;;;;;4988413;28;20800;-73
2023/12/01 10:20:39;;;;;;;13.55;6.32;;;2.90;99.90;;;;;;4987611;28;20516;-73
2023/12/01 10:23:18;;;;;;;49.10;9.93;;;2.90;99.90;;;;;;4988222;28;20882;-73
2023/12/01 10:25:49;;;;;;;114.45;16.40;;;2.80;99.90;;;;;;4987084;28;20077;-73
2023/12/01 10:28:18;;;;;;;7.85;4.93;;;2.70;99.90;;;;;;4989134;28;20053;-73
2023/12/01 10:30:58;;;;;;;7.70;5.38;;;2.80;99.90;;;;;;4987671;28;20049;-73
2023/12/01 10:33:28;;;;;;;6.32;5.25;;;2.80;99.90;;;;;;4989097;28;20034;-73
2023/12/01 10:36:04;;;;;;;7.45;5.10;;;2.80;99.90;;;;;;4987945;28;20038;-73
2023/12/01 10:38:31;;;;;;;8.90;4.80;;;3.00;99.90;;;;;;4989498;28;20061;-75
2023/12/01 10:40:58;;;;;;;6.68;4.25;;;3.10;99.90;;;;;;4988828;28;20034;-74
2023/12/01 10:43:26;;;;;;;5.18;3.00;;;3.00;99.90;;;;;;4987880;28;21011;-73
2023/12/01 10:45:52;;;;;;;5.00;3.03;;;3.00;99.90;;;;;;4988571;28;20037;-73
2023/12/01 10:48:20;;;;;;;4.93;2.92;;;3.10;99.90;;;;;;4992484;28;20025;-73
2023/12/01 10:50:50;;;;;;;4.90;3.08;;;3.00;99.90;;;;;;4991255;28;20105;-73
2023/12/01 10:53:17;;;;;;;5.18;3.35;;;3.10;99.90;;;;;;4990188;28;20395;-73
2023/12/01 10:55:47;;;;;;;5.50;2.85;;;3.10;99.90;;;;;;4990197;28;20340;-73
2023/12/01 10:58:23;;;;;;;4.82;2.88;;;3.10;99.90;;;;;;4988705;28;20152;-74
2023/12/01 11:00:53;;;;;;;8.48;4.75;;;3.20;99.90;;;;;;4988089;28;20038;-73
2023/12/01 11:03:26;;;;;;;8.05;4.05;;;3.10;99.90;;;;;;4987496;28;20049;-74
2023/12/01 11:06:10;;;;;;;5.93;4.28;;;3.10;99.90;;;;;;4988331;28;20034;-74
2023/12/01 11:09:04;;;;;;;8.75;5.05;;;3.10;99.90;;;;;;4989039;28;20042;-73
2023/12/01 11:11:49;;;;;;;7.68;4.85;;;3.00;99.90;;;;;;4988324;28;20042;-74
2023/12/01 11:14:21;;;;;;;6.25;4.10;;;3.00;99.90;;;;;;4988084;28;20454;-75
2023/12/01 11:16:48;;;;;;;6.10;4.13;;;3.10;99.90;;;;;;4987487;28;20041;-74
2023/12/01 11:19:15;;;;;;;7.25;4.22;;;3.10;99.90;;;;;;4987444;28;20033;-74
2023/12/01 11:21:45;;;;;;;36.05;20.75;;;3.10;99.90;;;;;;4987121;28;20100;-74
2023/12/01 11:24:24;;;;;;;14.98;9.55;;;3.10;99.90;;;;;;4988520;28;20042;-75
2023/12/01 11:26:54;;;;;;;14.63;10.13;;;3.20;99.90;;;;;;4988916;28;20060;-75
2023/12/01 11:29:29;;;;;;;19.98;16.73;;;3.20;99.90;;;;;;4987449;28;20030;-75
2023/12/01 11:31:57;;;;;;;14.30;12.80;;;3.10;99.90;;;;;;4986860;28;20033;-74
2023/12/01 11:34:26;;;;;;;12.45;9.93;;;3.00;99.90;;;;;;4987529;28;20507;-74
2023/12/01 11:36:53;;;;;;;12.45;9.65;;;3.00;99.90;;;;;;4989007;28;20049;-74
2023/12/01 11:39:20;;;;;;;10.43;8.25;;;3.00;99.90;;;;;;4987659;28;21190;-75
2023/12/01 11:42:12;;;;;;;9.57;7.53;;;3.00;99.90;;;;;;4986787;28;21297;-75
2023/12/01 11:44:39;;;;;;;9.15;6.25;;;3.00;99.90;;;;;;4987509;28;20099;-74
2023/12/01 11:47:08;;;;;;;11.07;7.82;;;3.00;99.90;;;;;;4986924;28;20365;-74
2023/12/01 11:49:39;;;;;;;11.88;7.25;;;3.00;99.90;;;;;;4988639;28;20042;-74
2023/12/01 11:52:12;;;;;;;9.60;6.57;;;3.00;99.90;;;;;;4986813;28;20597;-74
2023/12/01 11:54:38;;;;;;;12.52;8.32;;;3.10;99.90;;;;;;4984554;28;20462;-74
2023/12/01 11:57:18;;;;;;;10.98;6.70;;;3.10;99.90;;;;;;4987961;28;20077;-74
2023/12/01 11:59:44;;;;;;;9.55;6.05;;;2.90;99.90;;;;;;4988210;28;20054;-74
2023/12/01 12:02:10;;;;;;;8.32;6.43;;;3.00;99.90;;;;;;4987454;28;20668;-74
2023/12/01 12:04:39;;;;;;;10.38;7.55;;;3.00;99.90;;;;;;4986175;28;20116;-75
2023/12/01 12:07:06;;;;;;;9.68;7.22;;;3.00;99.90;;;;;;4987733;28;20121;-75
2023/12/01 12:09:32;;;;;;;10.25;7.53;;;3.00;99.90;;;;;;4986430;28;20075;-75
2023/12/01 12:12:00;;;;;;;9.85;6.45;;;3.00;99.90;;;;;;4987870;28;20084;-74
2023/12/01 12:14:30;;;;;;;8.00;6.05;;;3.00;99.90;;;;;;4988603;28;20602;-74
2023/12/01 12:16:56;;;;;;;8.50;6.32;;;3.10;99.90;;;;;;4988286;28;20077;-75
2023/12/01 12:19:22;;;;;;;10.88;6.70;;;3.10;99.90;;;;;;4984396;28;20417;-75
2023/12/01 12:21:48;;;;;;;198.35;27.58;;;3.10;99.90;;;;;;4986452;28;20049;-75
2023/12/01 12:24:15;;;;;;;7.85;5.90;;;3.00;99.90;;;;;;4986960;28;20042;-74
2023/12/01 12:26:42;;;;;;;8.25;5.90;;;3.00;99.90;;;;;;4987131;28;20038;-75
2023/12/01 12:29:08;;;;;;;8.18;5.78;;;3.00;99.90;;;;;;4988228;28;20535;-74
2023/12/01 12:31:35;;;;;;;8.00;5.68;;;3.00;99.90;;;;;;4986774;28;20053;-73
2023/12/01 12:34:04;;;;;;;9.95;6.72;;;3.00;99.90;;;;;;4984622;28;20495;-74
2023/12/01 12:36:31;;;;;;;10.05;7.25;;;3.10;99.90;;;;;;4987692;28;20038;-75
2023/12/01 12:39:06;;;;;;;10.48;7.10;;;3.10;99.90;;;;;;4987507;28;20034;-73
2023/12/01 12:41:31;;;;;;;10.23;6.63;;;3.10;99.90;;;;;;4986582;28;20034;-74
2023/12/01 12:44:05;;;;;;;9.35;6.47;;;3.10;99.90;;;;;;4986799;28;20049;-74
2023/12/01 12:46:32;;;;;;;12.38;9.50;;;3.00;99.90;;;;;;4988407;28;20104;-73
2023/12/01 12:49:18;;;;;;;59.60;13.32;;;3.00;99.90;;;;;;4986288;28;20041;-73
2023/12/01 12:51:44;;;;;;;37.88;10.10;;;2.90;99.90;;;;;;4986553;28;20675;-73